sensor_id;sensor_type;location;lat;lon;timestamp;pressure;altitude;pressure_sealevel;temperature;humidity
59103;BME280;43999;51.660;5.616;2023-02-12T00:02:16;103616.94;;;7.56;100.00
59103;BME280;43999;51.660;5.616;2023-02-12T00:04:47;103616.03;;;7.57;100.00
59103;BME280;43999;51.660;5.616;2023-02-12T00:07:17;103620.41;;;7.57;100.00
59103;BME280;43999;51.660;5.616;2023-02-12T00:09:46;103623.00;;;7.57;100.00
59103;BME280;43999;51.660;5.616;2023-02-12T00:12:14;103614.31;;;7.54;100.00
59103;BME280;43999;51.660;5.616;2023-02-12T00:14:43;103613.44;;;7.56;100.00
59103;BME280;43999;51.660;5.616;2023-02-12T00:17:10;103615.19;;;7.57;100.00
59103;BME280;43999;51.660;5.616;2023-02-12T00:19:47;103613.44;;;7.57;100.00
59103;BME280;43999;51.660;5.616;2023-02-12T00:22:16;103617.78;;;7.57;100.00
59103;BME280;43999;51.660;5.616;2023-02-12T00:24:43;103626.47;;;7.57;100.00
59103;BME280;43999;51.660;5.616;2023-02-12T00:27:17;103626.50;;;7.59;100.00
59103;BME280;43999;51.660;5.616;2023-02-12T00:29:45;103621.28;;;7.59;100.00
59103;BME280;43999;51.660;5.616;2023-02-12T00:32:12;103632.59;;;7.58;100.00
59103;BME280;43999;51.660;5.616;2023-02-12T00:34:49;103629.09;;;7.56;100.00
59103;BME280;43999;51.660;5.616;2023-02-12T00:37:22;103628.25;;;7.58;100.00
59103;BME280;43999;51.660;5.616;2023-02-12T00:40:39;103620.41;;;7.58;100.00
59103;BME280;43999;51.660;5.616;2023-02-12T00:43:09;103631.72;;;7.60;100.00
59103;BME280;43999;51.660;5.616;2023-02-12T00:45:37;103630.00;;;7.62;100.00
59103;BME280;43999;51.660;5.616;2023-02-12T00:48:05;103623.03;;;7.63;100.00
59103;BME280;43999;51.660;5.616;2023-02-12T00:50:33;103609.97;;;7.63;100.00
59103;BME280;43999;51.660;5.616;2023-02-12T00:53:04;103611.75;;;7.64;100.00
59103;BME280;43999;51.660;5.616;2023-02-12T00:55:37;103617.81;;;7.63;100.00
59103;BME280;43999;51.660;5.616;2023-02-12T00:58:06;103612.59;;;7.60;100.00
59103;BME280;43999;51.660;5.616;2023-02-12T01:00:36;103616.03;;;7.57;100.00
59103;BME280;43999;51.660;5.616;2023-02-12T01:03:06;103619.56;;;7.59;100.00
59103;BME280;43999;51.660;5.616;2023-02-12T01:05:41;103619.53;;;7.58;100.00
59103;BME280;43999;51.660;5.616;2023-02-12T01:08:15;103616.03;;;7.57;100.00
59103;BME280;43999;51.660;5.616;2023-02-12T01:10:58;103618.66;;;7.56;100.00
59103;BME280;43999;51.660;5.616;2023-02-12T01:13:33;103614.31;;;7.56;100.00
59103;BME280;43999;51.660;5.616;2023-02-12T01:16:23;103618.66;;;7.56;100.00
59103;BME280;43999;51.660;5.616;2023-02-12T01:18:56;103619.53;;;7.54;100.00
59103;BME280;43999;51.660;5.616;2023-02-12T01:21:34;103616.03;;;7.52;100.00
59103;BME280;43999;51.660;5.616;2023-02-12T01:24:03;103611.69;;;7.51;100.00
59103;BME280;43999;51.660;5.616;2023-02-12T01:26:36;103607.34;;;7.50;100.00
59103;BME280;43999;51.660;5.616;2023-02-12T01:29:06;103613.41;;;7.49;100.00
59103;BME280;43999;51.660;5.616;2023-02-12T01:31:38;103621.22;;;7.48;100.00
59103;BME280;43999;51.660;5.616;2023-02-12T01:34:08;103612.53;;;7.47;100.00
59103;BME280;43999;51.660;5.616;2023-02-12T01:36:39;103609.06;;;7.47;100.00
59103;BME280;43999;51.660;5.616;2023-02-12T01:39:11;103610.78;;;7.48;100.00
59103;BME280;43999;51.660;5.616;2023-02-12T01:41:44;103615.16;;;7.50;100.00
59103;BME280;43999;51.660;5.616;2023-02-12T01:44:21;103612.56;;;7.50;100.00
59103;BME280;43999;51.660;5.616;2023-02-12T01:47:00;103603.88;;;7.50;100.00
59103;BME280;43999;51.660;5.616;2023-02-12T01:49:43;103609.94;;;7.52;100.00
59103;BME280;43999;51.660;5.616;2023-02-12T01:52:33;103615.19;;;7.53;100.00
59103;BME280;43999;51.660;5.616;2023-02-12T01:55:09;103609.09;;;7.54;100.00
59103;BME280;43999;51.660;5.616;2023-02-12T01:57:42;103607.34;;;7.53;100.00
59103;BME280;43999;51.660;5.616;2023-02-12T02:00:21;103613.44;;;7.54;100.00
59103;BME280;43999;51.660;5.616;2023-02-12T02:02:56;103614.31;;;7.54;100.00
59103;BME280;43999;51.660;5.616;2023-02-12T02:06:05;103616.91;;;7.51;100.00
59103;BME280;43999;51.660;5.616;2023-02-12T02:08:38;103609.94;;;7.47;100.00
59103;BME280;43999;51.660;5.616;2023-02-12T02:11:09;103614.28;;;7.47;100.00
59103;BME280;43999;51.660;5.616;2023-02-12T02:14:01;103609.94;;;7.47;100.00
59103;BME280;43999;51.660;5.616;2023-02-12T02:36:13;103611.69;;;7.45;100.00
59103;BME280;43999;51.660;5.616;2023-02-12T02:38:59;103602.09;;;7.46;100.00
59103;BME280;43999;51.660;5.616;2023-02-12T02:42:23;103590.78;;;7.41;100.00
59103;BME280;43999;51.660;5.616;2023-02-12T02:45:18;103600.34;;;7.42;100.00
59103;BME280;43999;51.660;5.616;2023-02-12T02:48:16;103600.34;;;7.42;100.00
59103;BME280;43999;51.660;5.616;2023-02-12T02:50:55;103598.63;;;7.42;100.00
59103;BME280;43999;51.660;5.616;2023-02-12T02:53:52;103598.63;;;7.41;100.00
59103;BME280;43999;51.660;5.616;2023-02-12T02:56:29;103597.72;;;7.40;100.00
59103;BME280;43999;51.660;5.616;2023-02-12T02:59:09;103591.63;;;7.33;100.00
59103;BME280;43999;51.660;5.616;2023-02-12T03:04:47;103597.69;;;7.32;100.00
59103;BME280;43999;51.660;5.616;2023-02-12T03:07:43;103591.59;;;7.30;100.00
59103;BME280;43999;51.660;5.616;2023-02-12T03:10:50;103602.91;;;7.29;100.00
59103;BME280;43999;51.660;5.616;2023-02-12T03:13:35;103598.56;;;7.28;100.00
59103;BME280;43999;51.660;5.616;2023-02-12T03:16:28;103595.06;;;7.29;100.00
59103;BME280;43999;51.660;5.616;2023-02-12T03:19:26;103600.28;;;7.28;100.00
59103;BME280;43999;51.660;5.616;2023-02-12T03:22:10;103593.34;;;7.27;100.00
59103;BME280;43999;51.660;5.616;2023-02-12T03:24:53;103592.44;;;7.25;100.00
59103;BME280;43999;51.660;5.616;2023-02-12T03:27:37;103595.03;;;7.22;100.00
59103;BME280;43999;51.660;5.616;2023-02-12T03:30:13;103586.34;;;7.20;100.00
59103;BME280;43999;51.660;5.616;2023-02-12T03:33:07;103584.59;;;7.20;100.00
59103;BME280;43999;51.660;5.616;2023-02-12T03:38:51;103584.56;;;7.14;100.00
59103;BME280;43999;51.660;5.616;2023-02-12T03:41:44;103588.94;;;7.15;100.00
59103;BME280;43999;51.660;5.616;2023-02-12T03:47:51;103581.09;;;7.13;100.00
59103;BME280;43999;51.660;5.616;2023-02-12T03:52:58;103578.47;;;7.10;100.00
59103;BME280;43999;51.660;5.616;2023-02-12T03:55:25;103583.69;;;7.09;100.00
59103;BME280;43999;51.660;5.616;2023-02-12T03:57:59;103588.06;;;7.11;100.00
59103;BME280;43999;51.660;5.616;2023-02-12T04:00:31;103585.44;;;7.10;100.00
59103;BME280;43999;51.660;5.616;2023-02-12T04:03:00;103582.81;;;7.08;100.00
59103;BME280;43999;51.660;5.616;2023-02-12T04:05:36;103583.69;;;7.12;100.00
59103;BME280;43999;51.660;5.616;2023-02-12T04:08:08;103585.44;;;7.11;100.00
59103;BME280;43999;51.660;5.616;2023-02-12T04:11:13;103586.31;;;7.10;100.00
59103;BME280;43999;51.660;5.616;2023-02-12T04:18:19;103602.84;;;7.17;100.00
59103;BME280;43999;51.660;5.616;2023-02-12T04:24:18;103611.56;;;7.21;100.00
59103;BME280;43999;51.660;5.616;2023-02-12T04:27:24;103614.19;;;7.22;100.00
59103;BME280;43999;51.660;5.616;2023-02-12T04:30:12;103615.91;;;7.23;100.00
59103;BME280;43999;51.660;5.616;2023-02-12T04:33:06;103615.91;;;7.22;100.00
59103;BME280;43999;51.660;5.616;2023-02-12T04:36:07;103615.06;;;7.23;100.00
59103;BME280;43999;51.660;5.616;2023-02-12T04:38:58;103615.88;;;7.20;100.00
59103;BME280;43999;51.660;5.616;2023-02-12T04:41:37;103609.81;;;7.20;100.00
59103;BME280;43999;51.660;5.616;2023-02-12T04:44:24;103614.16;;;7.17;100.00
59103;BME280;43999;51.660;5.616;2023-02-12T04:46:58;103617.59;;;7.13;100.00
59103;BME280;43999;51.660;5.616;2023-02-12T04:49:31;103615.00;;;7.13;100.00
59103;BME280;43999;51.660;5.616;2023-02-12T04:52:05;103608.94;;;7.14;100.00
59103;BME280;43999;51.660;5.616;2023-02-12T04:54:35;103610.66;;;7.15;100.00
59103;BME280;43999;51.660;5.616;2023-02-12T04:57:07;103613.25;;;7.14;100.00
59103;BME280;43999;51.660;5.616;2023-02-12T04:59:37;103612.41;;;7.16;100.00
59103;BME280;43999;51.660;5.616;2023-02-12T05:02:11;103615.88;;;7.20;100.00
59103;BME280;43999;51.660;5.616;2023-02-12T05:04:42;103619.41;;;7.21;100.00
59103;BME280;43999;51.660;5.616;2023-02-12T05:07:10;103624.63;;;7.22;100.00
59103;BME280;43999;51.660;5.616;2023-02-12T05:09:38;103622.88;;;7.24;100.00
59103;BME280;43999;51.660;5.616;2023-02-12T05:12:06;103619.41;;;7.25;100.00
59103;BME280;43999;51.660;5.616;2023-02-12T05:14:36;103626.38;;;7.28;100.00
59103;BME280;43999;51.660;5.616;2023-02-12T05:17:06;103622.91;;;7.27;100.00
59103;BME280;43999;51.660;5.616;2023-02-12T05:19:34;103625.50;;;7.29;100.00
59103;BME280;43999;51.660;5.616;2023-02-12T05:22:01;103622.03;;;7.28;100.00
59103;BME280;43999;51.660;5.616;2023-02-12T05:24:29;103626.38;;;7.31;100.00
59103;BME280;43999;51.660;5.616;2023-02-12T05:26:57;103623.78;;;7.31;100.00
59103;BME280;43999;51.660;5.616;2023-02-12T05:29:25;103634.19;;;7.28;100.00
59103;BME280;43999;51.660;5.616;2023-02-12T05:31:55;103628.13;;;7.29;100.00
59103;BME280;43999;51.660;5.616;2023-02-12T05:34:24;103635.06;;;7.27;100.00
59103;BME280;43999;51.660;5.616;2023-02-12T05:36:53;103637.69;;;7.27;100.00
59103;BME280;43999;51.660;5.616;2023-02-12T05:39:24;103631.56;;;7.26;100.00
59103;BME280;43999;51.660;5.616;2023-02-12T05:41:56;103634.19;;;7.26;100.00
59103;BME280;43999;51.660;5.616;2023-02-12T05:44:26;103638.56;;;7.29;100.00
59103;BME280;43999;51.660;5.616;2023-02-12T05:46:56;103635.09;;;7.28;100.00
59103;BME280;43999;51.660;5.616;2023-02-12T05:49:24;103633.31;;;7.27;100.00
59103;BME280;43999;51.660;5.616;2023-02-12T05:51:53;103633.31;;;7.26;100.00
59103;BME280;43999;51.660;5.616;2023-02-12T05:54:21;103640.28;;;7.24;100.00
59103;BME280;43999;51.660;5.616;2023-02-12T05:56:50;103642.88;;;7.22;100.00
59103;BME280;43999;51.660;5.616;2023-02-12T05:59:22;103641.13;;;7.20;100.00
59103;BME280;43999;51.660;5.616;2023-02-12T06:01:51;103641.13;;;7.21;100.00
59103;BME280;43999;51.660;5.616;2023-02-12T06:04:24;103633.28;;;7.20;100.00
59103;BME280;43999;51.660;5.616;2023-02-12T06:06:55;103641.13;;;7.20;100.00
59103;BME280;43999;51.660;5.616;2023-02-12T06:09:23;103642.84;;;7.19;100.00
59103;BME280;43999;51.660;5.616;2023-02-12T06:11:56;103644.56;;;7.17;100.00
59103;BME280;43999;51.660;5.616;2023-02-12T06:14:24;103641.09;;;7.18;100.00
59103;BME280;43999;51.660;5.616;2023-02-12T06:16:52;103645.47;;;7.17;100.00
59103;BME280;43999;51.660;5.616;2023-02-12T06:19:28;103647.16;;;7.15;100.00
59103;BME280;43999;51.660;5.616;2023-02-12T06:21:57;103649.78;;;7.18;100.00
59103;BME280;43999;51.660;5.616;2023-02-12T06:24:24;103651.53;;;7.16;100.00
59103;BME280;43999;51.660;5.616;2023-02-12T06:27:02;103643.69;;;7.15;100.00
59103;BME280;43999;51.660;5.616;2023-02-12T06:29:30;103648.91;;;7.12;100.00
59103;BME280;43999;51.660;5.616;2023-02-12T06:32:02;103641.06;;;7.10;100.00
59103;BME280;43999;51.660;5.616;2023-02-12T06:34:31;103654.97;;;7.11;100.00
59103;BME280;43999;51.660;5.616;2023-02-12T06:37:00;103654.09;;;7.10;100.00
59103;BME280;43999;51.660;5.616;2023-02-12T06:39:28;103654.09;;;7.09;100.00
59103;BME280;43999;51.660;5.616;2023-02-12T06:41:58;103650.63;;;7.08;100.00
59103;BME280;43999;51.660;5.616;2023-02-12T06:44:27;103651.47;;;7.06;100.00
59103;BME280;43999;51.660;5.616;2023-02-12T06:46:56;103653.25;;;7.10;100.00
59103;BME280;43999;51.660;5.616;2023-02-12T06:49:29;103660.16;;;7.11;100.00
59103;BME280;43999;51.660;5.616;2023-02-12T06:52:00;103662.78;;;7.11;100.00
59103;BME280;43999;51.660;5.616;2023-02-12T06:54:29;103659.31;;;7.12;100.00
59103;BME280;43999;51.660;5.616;2023-02-12T06:56:57;103665.41;;;7.12;100.00
59103;BME280;43999;51.660;5.616;2023-02-12T06:59:25;103669.75;;;7.12;100.00
59103;BME280;43999;51.660;5.616;2023-02-12T07:01:54;103668.91;;;7.13;100.00
59103;BME280;43999;51.660;5.616;2023-02-12T07:04:21;103668.91;;;7.13;100.00
59103;BME280;43999;51.660;5.616;2023-02-12T07:06:49;103669.75;;;7.12;100.00
59103;BME280;43999;51.660;5.616;2023-02-12T07:09:20;103672.34;;;7.12;100.00
59103;BME280;43999;51.660;5.616;2023-02-12T07:11:48;103678.44;;;7.12;100.00
59103;BME280;43999;51.660;5.616;2023-02-12T07:14:17;103674.97;;;7.10;100.00
59103;BME280;43999;51.660;5.616;2023-02-12T07:16:46;103675.84;;;7.14;100.00
59103;BME280;43999;51.660;5.616;2023-02-12T07:19:15;103678.44;;;7.14;100.00
59103;BME280;43999;51.660;5.616;2023-02-12T07:21:44;103677.59;;;7.13;100.00
59103;BME280;43999;51.660;5.616;2023-02-12T07:24:13;103675.84;;;7.15;100.00
59103;BME280;43999;51.660;5.616;2023-02-12T07:26:43;103677.59;;;7.16;100.00
59103;BME280;43999;51.660;5.616;2023-02-12T07:29:11;103668.91;;;7.16;100.00
59103;BME280;43999;51.660;5.616;2023-02-12T07:31:39;103671.53;;;7.16;100.00
59103;BME280;43999;51.660;5.616;2023-02-12T07:34:11;103680.22;;;7.20;100.00
59103;BME280;43999;51.660;5.616;2023-02-12T07:36:41;103685.47;;;7.23;100.00
59103;BME280;43999;51.660;5.616;2023-02-12T07:39:15;103689.81;;;7.22;100.00
59103;BME280;43999;51.660;5.616;2023-02-12T07:41:43;103692.44;;;7.22;100.00
59103;BME280;43999;51.660;5.616;2023-02-12T07:44:12;103691.53;;;7.22;100.00
59103;BME280;43999;51.660;5.616;2023-02-12T07:46:43;103692.44;;;7.24;100.00
59103;BME280;43999;51.660;5.616;2023-02-12T07:49:18;103692.44;;;7.24;100.00
59103;BME280;43999;51.660;5.616;2023-02-12T07:52:00;103696.78;;;7.26;100.00
59103;BME280;43999;51.660;5.616;2023-02-12T07:54:30;103695.91;;;7.26;100.00
59103;BME280;43999;51.660;5.616;2023-02-12T07:56:57;103697.69;;;7.30;100.00
59103;BME280;43999;51.660;5.616;2023-02-12T07:59:34;103692.47;;;7.31;100.00
59103;BME280;43999;51.660;5.616;2023-02-12T08:02:11;103695.09;;;7.33;100.00
59103;BME280;43999;51.660;5.616;2023-02-12T08:04:39;103695.09;;;7.34;100.00
59103;BME280;43999;51.660;5.616;2023-02-12T08:07:07;103705.56;;;7.38;100.00
59103;BME280;43999;51.660;5.616;2023-02-12T08:09:34;103702.97;;;7.39;100.00
59103;BME280;43999;51.660;5.616;2023-02-12T08:12:03;103704.69;;;7.42;100.00
59103;BME280;43999;51.660;5.616;2023-02-12T08:14:33;103696.88;;;7.45;100.00
59103;BME280;43999;51.660;5.616;2023-02-12T08:17:08;103705.59;;;7.47;100.00
59103;BME280;43999;51.660;5.616;2023-02-12T08:19:38;103703.00;;;7.48;100.00
59103;BME280;43999;51.660;5.616;2023-02-12T08:22:07;103709.94;;;7.49;100.00
59103;BME280;43999;51.660;5.616;2023-02-12T08:24:35;103709.09;;;7.52;100.00
59103;BME280;43999;51.660;5.616;2023-02-12T08:27:04;103709.13;;;7.55;100.00
59103;BME280;43999;51.660;5.616;2023-02-12T08:29:31;103713.50;;;7.59;100.00
59103;BME280;43999;51.660;5.616;2023-02-12T08:32:19;103710.91;;;7.61;100.00
59103;BME280;43999;51.660;5.616;2023-02-12T08:34:48;103723.06;;;7.63;100.00
59103;BME280;43999;51.660;5.616;2023-02-12T08:37:15;103717.84;;;7.62;100.00
59103;BME280;43999;51.660;5.616;2023-02-12T08:39:42;103721.34;;;7.65;100.00
59103;BME280;43999;51.660;5.616;2023-02-12T08:42:14;103732.69;;;7.69;100.00
59103;BME280;43999;51.660;5.616;2023-02-12T08:44:45;103725.72;;;7.72;100.00
59103;BME280;43999;51.660;5.616;2023-02-12T08:47:13;103727.47;;;7.77;100.00
59103;BME280;43999;51.660;5.616;2023-02-12T08:49:43;103734.47;;;7.79;100.00
59103;BME280;43999;51.660;5.616;2023-02-12T08:52:10;103734.47;;;7.82;100.00
59103;BME280;43999;51.660;5.616;2023-02-12T08:54:39;103731.88;;;7.84;100.00
59103;BME280;43999;51.660;5.616;2023-02-12T08:57:09;103735.34;;;7.86;100.00
59103;BME280;43999;51.660;5.616;2023-02-12T08:59:36;103730.16;;;7.87;100.00
59103;BME280;43999;51.660;5.616;2023-02-12T09:02:03;103732.75;;;7.90;100.00
59103;BME280;43999;51.660;5.616;2023-02-12T09:04:34;103738.00;;;7.90;100.00
59103;BME280;43999;51.660;5.616;2023-02-12T09:07:04;103738.00;;;7.90;100.00
59103;BME280;43999;51.660;5.616;2023-02-12T09:09:34;103744.06;;;7.93;100.00
59103;BME280;43999;51.660;5.616;2023-02-12T09:12:02;103739.72;;;7.93;100.00
59103;BME280;43999;51.660;5.616;2023-02-12T09:14:33;103742.34;;;7.96;100.00
59103;BME280;43999;51.660;5.616;2023-02-12T09:17:00;103747.56;;;7.98;100.00
59103;BME280;43999;51.660;5.616;2023-02-12T09:19:28;103745.84;;;7.98;100.00
59103;BME280;43999;51.660;5.616;2023-02-12T09:22:06;103744.97;;;8.01;100.00
59103;BME280;43999;51.660;5.616;2023-02-12T09:24:38;103747.59;;;8.04;100.00
59103;BME280;43999;51.660;5.616;2023-02-12T09:27:05;103746.75;;;8.06;100.00
59103;BME280;43999;51.660;5.616;2023-02-12T09:29:37;103745.00;;;8.08;100.00
59103;BME280;43999;51.660;5.616;2023-02-12T09:32:10;103745.00;;;8.12;100.00
59103;BME280;43999;51.660;5.616;2023-02-12T09:34:39;103749.38;;;8.17;100.00
59103;BME280;43999;51.660;5.616;2023-02-12T09:37:08;103753.75;;;8.17;100.00
59103;BME280;43999;51.660;5.616;2023-02-12T09:39:41;103754.59;;;8.16;100.00
59103;BME280;43999;51.660;5.616;2023-02-12T09:45:31;103750.25;;;8.21;100.00
59103;BME280;43999;51.660;5.616;2023-02-12T09:51:28;103752.03;;;8.30;100.00
59103;BME280;43999;51.660;5.616;2023-02-12T09:54:12;103745.94;;;8.32;100.00
59103;BME280;43999;51.660;5.616;2023-02-12T09:56:55;103752.91;;;8.38;100.00
59103;BME280;43999;51.660;5.616;2023-02-12T10:02:53;103755.56;;;8.44;100.00
59103;BME280;43999;51.660;5.616;2023-02-12T10:05:52;103752.09;;;8.48;100.00
59103;BME280;43999;51.660;5.616;2023-02-12T10:18:47;103755.59;;;8.55;100.00
59103;BME280;43999;51.660;5.616;2023-02-12T10:26:58;103750.38;;;8.64;100.00
59103;BME280;43999;51.660;5.616;2023-02-12T10:29:42;103746.03;;;8.66;100.00
59103;BME280;43999;51.660;5.616;2023-02-12T10:32:24;103739.91;;;8.67;100.00
59103;BME280;43999;51.660;5.616;2023-02-12T10:34:57;103743.44;;;8.69;100.00
59103;BME280;43999;51.660;5.616;2023-02-12T10:37:51;103744.28;;;8.73;100.00
59103;BME280;43999;51.660;5.616;2023-02-12T10:40:32;103746.03;;;8.75;100.00
59103;BME280;43999;51.660;5.616;2023-02-12T10:43:11;103735.59;;;8.75;100.00
59103;BME280;43999;51.660;5.616;2023-02-12T10:45:42;103735.59;;;8.78;100.00
59103;BME280;43999;51.660;5.616;2023-02-12T10:48:32;103731.22;;;8.81;100.00
59103;BME280;43999;51.660;5.616;2023-02-12T10:53:45;103740.81;;;8.85;100.00
59103;BME280;43999;51.660;5.616;2023-02-12T10:56:25;103738.19;;;8.85;100.00
59103;BME280;43999;51.660;5.616;2023-02-12T10:58:59;103740.81;;;8.88;100.00
59103;BME280;43999;51.660;5.616;2023-02-12T11:01:34;103734.69;;;8.86;100.00
59103;BME280;43999;51.660;5.616;2023-02-12T11:04:31;103744.28;;;8.90;100.00
59103;BME280;43999;51.660;5.616;2023-02-12T11:07:06;103744.28;;;8.91;100.00
59103;BME280;43999;51.660;5.616;2023-02-12T11:12:35;103739.91;;;8.95;100.00
59103;BME280;43999;51.660;5.616;2023-02-12T11:15:18;103732.06;;;8.95;100.00
59103;BME280;43999;51.660;5.616;2023-02-12T11:18:24;103737.31;;;8.98;100.00
59103;BME280;43999;51.660;5.616;2023-02-12T11:21:11;103732.97;;;8.99;100.00
59103;BME280;43999;51.660;5.616;2023-02-12T11:23:43;103727.72;;;9.00;100.00
59103;BME280;43999;51.660;5.616;2023-02-12T11:30:14;103732.06;;;8.98;100.00
59103;BME280;43999;51.660;5.616;2023-02-12T11:33:40;103730.34;;;8.95;100.00
59103;BME280;43999;51.660;5.616;2023-02-12T11:36:22;103724.22;;;8.96;100.00
59103;BME280;43999;51.660;5.616;2023-02-12T11:38:55;103722.50;;;8.97;100.00
59103;BME280;43999;51.660;5.616;2023-02-12T11:41:41;103721.63;;;8.96;100.00
59103;BME280;43999;51.660;5.616;2023-02-12T11:44:21;103710.28;;;8.97;100.00
59103;BME280;43999;51.660;5.616;2023-02-12T11:47:17;103715.50;;;8.99;100.00
59103;BME280;43999;51.660;5.616;2023-02-12T11:49:57;103700.69;;;8.96;100.00
59103;BME280;43999;51.660;5.616;2023-02-12T11:52:35;103704.19;;;9.03;100.00
59103;BME280;43999;51.660;5.616;2023-02-12T11:55:27;103707.66;;;9.08;100.00
59103;BME280;43999;51.660;5.616;2023-02-12T11:58:13;103710.28;;;9.11;100.00
59103;BME280;43999;51.660;5.616;2023-02-12T12:01:15;103712.03;;;9.15;100.00
59103;BME280;43999;51.660;5.616;2023-02-12T12:04:03;103708.50;;;9.17;100.00
59103;BME280;43999;51.660;5.616;2023-02-12T12:09:41;103699.78;;;9.16;100.00
59103;BME280;43999;51.660;5.616;2023-02-12T12:12:49;103702.41;;;9.16;100.00
59103;BME280;43999;51.660;5.616;2023-02-12T12:15:27;103698.03;;;9.15;100.00
59103;BME280;43999;51.660;5.616;2023-02-12T12:18:33;103697.19;;;9.14;100.00
59103;BME280;43999;51.660;5.616;2023-02-12T12:22:12;103703.28;;;9.12;100.00
59103;BME280;43999;51.660;5.616;2023-02-12T12:25:12;103695.44;;;9.09;100.00
59103;BME280;43999;51.660;5.616;2023-02-12T12:28:04;103684.13;;;9.05;100.00
59103;BME280;43999;51.660;5.616;2023-02-12T12:31:10;103686.75;;;9.07;100.00
59103;BME280;43999;51.660;5.616;2023-02-12T12:34:02;103685.88;;;9.08;100.00
59103;BME280;43999;51.660;5.616;2023-02-12T12:37:25;103682.38;;;9.06;100.00
59103;BME280;43999;51.660;5.616;2023-02-12T12:40:47;103679.75;;;9.06;100.00
59103;BME280;43999;51.660;5.616;2023-02-12T12:43:39;103678.03;;;9.05;100.00
59103;BME280;43999;51.660;5.616;2023-02-12T12:47:17;103673.66;;;9.04;100.00
59103;BME280;43999;51.660;5.616;2023-02-12T13:28:01;103644.88;;;9.05;100.00
59103;BME280;43999;51.660;5.616;2023-02-12T13:30:52;103644.91;;;9.02;100.00
59103;BME280;43999;51.660;5.616;2023-02-12T13:33:31;103641.41;;;9.00;100.00
59103;BME280;43999;51.660;5.616;2023-02-12T13:36:11;103641.44;;;8.99;100.00
59103;BME280;43999;51.660;5.616;2023-02-12T13:39:17;103637.91;;;8.98;100.00
59103;BME280;43999;51.660;5.616;2023-02-12T13:45:29;103648.38;;;8.95;100.00
59103;BME280;43999;51.660;5.616;2023-02-12T13:51:47;103639.69;;;8.88;100.00
59103;BME280;43999;51.660;5.616;2023-02-12T13:57:43;103632.72;;;8.86;100.00
59103;BME280;43999;51.660;5.616;2023-02-12T14:03:31;103631.84;;;8.85;100.00
59103;BME280;43999;51.660;5.616;2023-02-12T14:06:18;103625.75;;;8.85;100.00
59103;BME280;43999;51.660;5.616;2023-02-12T14:08:52;103625.75;;;8.83;100.00
59103;BME280;43999;51.660;5.616;2023-02-12T14:11:53;103619.63;;;8.87;100.00
59103;BME280;43999;51.660;5.616;2023-02-12T14:14:40;103626.63;;;8.88;100.00
59103;BME280;43999;51.660;5.616;2023-02-12T14:17:39;103616.16;;;8.91;100.00
59103;BME280;43999;51.660;5.616;2023-02-12T14:20:34;103620.50;;;8.94;100.00
59103;BME280;43999;51.660;5.616;2023-02-12T14:23:27;103613.53;;;8.94;100.00
59103;BME280;43999;51.660;5.616;2023-02-12T14:29:05;103613.53;;;8.97;100.00
59103;BME280;43999;51.660;5.616;2023-02-12T14:31:52;103615.28;;;8.97;100.00
59103;BME280;43999;51.660;5.616;2023-02-12T14:34:39;103607.44;;;8.97;100.00
59103;BME280;43999;51.660;5.616;2023-02-12T14:37:16;103618.75;;;8.96;100.00
59103;BME280;43999;51.660;5.616;2023-02-12T14:40:41;103608.28;;;8.94;100.00
59103;BME280;43999;51.660;5.616;2023-02-12T14:43:33;103610.06;;;8.94;100.00
59103;BME280;43999;51.660;5.616;2023-02-12T14:49:51;103609.16;;;8.92;100.00
59103;BME280;43999;51.660;5.616;2023-02-12T14:52:32;103611.78;;;8.90;100.00
59103;BME280;43999;51.660;5.616;2023-02-12T14:55:32;103603.09;;;8.90;100.00
59103;BME280;43999;51.660;5.616;2023-02-12T14:58:15;103603.09;;;8.88;100.00
59103;BME280;43999;51.660;5.616;2023-02-12T15:00:50;103601.34;;;8.87;100.00
59103;BME280;43999;51.660;5.616;2023-02-12T15:06:33;103600.47;;;8.85;100.00
59103;BME280;43999;51.660;5.616;2023-02-12T15:09:35;103597.88;;;8.82;100.00
59103;BME280;43999;51.660;5.616;2023-02-12T15:16:13;103592.63;;;8.84;100.00
59103;BME280;43999;51.660;5.616;2023-02-12T15:22:35;103593.50;;;8.84;100.00
59103;BME280;43999;51.660;5.616;2023-02-12T15:25:31;103595.25;;;8.82;100.00
59103;BME280;43999;51.660;5.616;2023-02-12T15:28:20;103587.41;;;8.81;100.00
59103;BME280;43999;51.660;5.616;2023-02-12T15:31:08;103587.41;;;8.79;100.00
59103;BME280;43999;51.660;5.616;2023-02-12T15:33:44;103590.03;;;8.77;100.00
59103;BME280;43999;51.660;5.616;2023-02-12T15:36:20;103596.13;;;8.73;100.00
59103;BME280;43999;51.660;5.616;2023-02-12T15:39:02;103592.66;;;8.70;100.00
59103;BME280;43999;51.660;5.616;2023-02-12T15:41:38;103588.31;;;8.67;100.00
59103;BME280;43999;51.660;5.616;2023-02-12T15:44:30;103590.06;;;8.67;100.00
59103;BME280;43999;51.660;5.616;2023-02-12T15:50:00;103580.47;;;8.61;100.00
59103;BME280;43999;51.660;5.616;2023-02-12T15:52:35;103583.09;;;8.56;100.00
59103;BME280;43999;51.660;5.616;2023-02-12T15:55:25;103583.97;;;8.54;100.00
59103;BME280;43999;51.660;5.616;2023-02-12T15:58:02;103577.00;;;8.51;100.00
59103;BME280;43999;51.660;5.616;2023-02-12T16:00:43;103572.66;;;8.46;100.00
59103;BME280;43999;51.660;5.616;2023-02-12T16:03:37;103574.41;;;8.43;100.00
59103;BME280;43999;51.660;5.616;2023-02-12T16:06:10;103577.00;;;8.45;100.00
59103;BME280;43999;51.660;5.616;2023-02-12T16:08:52;103585.69;;;8.42;100.00
59103;BME280;43999;51.660;5.616;2023-02-12T16:11:35;103577.00;;;8.37;100.00
59103;BME280;43999;51.660;5.616;2023-02-12T16:17:34;103575.25;;;8.32;100.00
59103;BME280;43999;51.660;5.616;2023-02-12T16:22:49;103576.13;;;8.29;100.00
59103;BME280;43999;51.660;5.616;2023-02-12T16:25:27;103570.91;;;8.28;100.00